sensor_id;sensor_type;location;lat;lon;timestamp;P1;durP1;ratioP1;P2;durP2;ratioP2
24483;SDS011;12643;51.620;7.548;2024-02-26T00:01:18;1.33;;;0.90;;
24483;SDS011;12643;51.620;7.548;2024-02-26T00:03:46;0.93;;;0.90;;
24483;SDS011;12643;51.620;7.548;2024-02-26T00:06:16;1.05;;;1.00;;
24483;SDS011;12643;51.620;7.548;2024-02-26T00:08:44;0.90;;;0.80;;
24483;SDS011;12643;51.620;7.548;2024-02-26T00:11:13;0.93;;;0.93;;
24483;SDS011;12643;51.620;7.548;2024-02-26T00:13:41;0.85;;;0.85;;
24483;SDS011;12643;51.620;7.548;2024-02-26T00:16:09;1.08;;;0.98;;
24483;SDS011;12643;51.620;7.548;2024-02-26T00:18:37;1.10;;;1.00;;
24483;SDS011;12643;51.620;7.548;2024-02-26T00:21:05;0.90;;;0.90;;
24483;SDS011;12643;51.620;7.548;2024-02-26T00:23:34;1.00;;;0.95;;
24483;SDS011;12643;51.620;7.548;2024-02-26T00:26:02;0.93;;;0.70;;
24483;SDS011;12643;51.620;7.548;2024-02-26T00:28:30;1.38;;;0.98;;
24483;SDS011;12643;51.620;7.548;2024-02-26T00:30:58;1.15;;;1.05;;
24483;SDS011;12643;51.620;7.548;2024-02-26T00:33:26;1.00;;;0.90;;
24483;SDS011;12643;51.620;7.548;2024-02-26T00:35:54;1.38;;;0.90;;
24483;SDS011;12643;51.620;7.548;2024-02-26T00:38:22;0.90;;;0.85;;
24483;SDS011;12643;51.620;7.548;2024-02-26T00:40:51;0.68;;;0.65;;
24483;SDS011;12643;51.620;7.548;2024-02-26T00:43:19;0.75;;;0.75;;
24483;SDS011;12643;51.620;7.548;2024-02-26T00:45:47;1.13;;;1.00;;
24483;SDS011;12643;51.620;7.548;2024-02-26T00:48:15;1.00;;;0.88;;
24483;SDS011;12643;51.620;7.548;2024-02-26T00:50:43;1.20;;;1.05;;
24483;SDS011;12643;51.620;7.548;2024-02-26T00:53:11;0.90;;;0.70;;
24483;SDS011;12643;51.620;7.548;2024-02-26T00:55:39;0.73;;;0.73;;
24483;SDS011;12643;51.620;7.548;2024-02-26T00:58:08;1.08;;;0.98;;
24483;SDS011;12643;51.620;7.548;2024-02-26T01:00:36;0.80;;;0.80;;
24483;SDS011;12643;51.620;7.548;2024-02-26T01:03:04;0.70;;;0.70;;
24483;SDS011;12643;51.620;7.548;2024-02-26T01:05:32;1.40;;;0.80;;
24483;SDS011;12643;51.620;7.548;2024-02-26T01:08:00;0.60;;;0.60;;
24483;SDS011;12643;51.620;7.548;2024-02-26T01:10:29;0.80;;;0.80;;
24483;SDS011;12643;51.620;7.548;2024-02-26T01:12:57;1.48;;;0.95;;
24483;SDS011;12643;51.620;7.548;2024-02-26T01:15:26;1.25;;;0.88;;
24483;SDS011;12643;51.620;7.548;2024-02-26T01:17:54;1.67;;;1.20;;
24483;SDS011;12643;51.620;7.548;2024-02-26T01:20:22;0.85;;;0.75;;
24483;SDS011;12643;51.620;7.548;2024-02-26T01:22:50;2.08;;;0.88;;
24483;SDS011;12643;51.620;7.548;2024-02-26T01:25:18;0.70;;;0.70;;
24483;SDS011;12643;51.620;7.548;2024-02-26T01:27:46;1.70;;;0.90;;
24483;SDS011;12643;51.620;7.548;2024-02-26T01:30:14;0.82;;;0.82;;
24483;SDS011;12643;51.620;7.548;2024-02-26T01:32:46;1.00;;;0.80;;
24483;SDS011;12643;51.620;7.548;2024-02-26T01:35:14;1.23;;;0.80;;
24483;SDS011;12643;51.620;7.548;2024-02-26T01:37:42;0.80;;;0.80;;
24483;SDS011;12643;51.620;7.548;2024-02-26T01:40:10;1.13;;;0.80;;
24483;SDS011;12643;51.620;7.548;2024-02-26T01:42:43;1.65;;;1.02;;
24483;SDS011;12643;51.620;7.548;2024-02-26T01:45:12;0.90;;;0.75;;
24483;SDS011;12643;51.620;7.548;2024-02-26T01:47:49;1.40;;;0.75;;
24483;SDS011;12643;51.620;7.548;2024-02-26T01:50:17;0.70;;;0.70;;
24483;SDS011;12643;51.620;7.548;2024-02-26T01:52:47;0.70;;;0.70;;
24483;SDS011;12643;51.620;7.548;2024-02-26T01:55:17;0.68;;;0.68;;
24483;SDS011;12643;51.620;7.548;2024-02-26T01:57:46;1.85;;;1.13;;
24483;SDS011;12643;51.620;7.548;2024-02-26T02:00:17;0.60;;;0.60;;
24483;SDS011;12643;51.620;7.548;2024-02-26T02:02:46;0.70;;;0.70;;
24483;SDS011;12643;51.620;7.548;2024-02-26T02:05:16;1.05;;;0.70;;
24483;SDS011;12643;51.620;7.548;2024-02-26T02:07:46;0.93;;;0.90;;
24483;SDS011;12643;51.620;7.548;2024-02-26T02:10:14;0.82;;;0.82;;
24483;SDS011;12643;51.620;7.548;2024-02-26T02:12:43;0.70;;;0.70;;
24483;SDS011;12643;51.620;7.548;2024-02-26T02:15:11;0.50;;;0.50;;
24483;SDS011;12643;51.620;7.548;2024-02-26T02:17:39;2.03;;;0.70;;
24483;SDS011;12643;51.620;7.548;2024-02-26T02:20:09;0.70;;;0.70;;
24483;SDS011;12643;51.620;7.548;2024-02-26T02:22:43;0.80;;;0.75;;
24483;SDS011;12643;51.620;7.548;2024-02-26T02:25:11;0.73;;;0.65;;
24483;SDS011;12643;51.620;7.548;2024-02-26T02:27:39;0.60;;;0.60;;
24483;SDS011;12643;51.620;7.548;2024-02-26T02:30:09;1.00;;;0.60;;
24483;SDS011;12643;51.620;7.548;2024-02-26T02:32:39;0.73;;;0.73;;
24483;SDS011;12643;51.620;7.548;2024-02-26T02:35:08;0.50;;;0.50;;
24483;SDS011;12643;51.620;7.548;2024-02-26T02:37:35;0.70;;;0.70;;
24483;SDS011;12643;51.620;7.548;2024-02-26T02:40:05;1.42;;;0.90;;
24483;SDS011;12643;51.620;7.548;2024-02-26T02:42:34;0.93;;;0.90;;
24483;SDS011;12643;51.620;7.548;2024-02-26T02:45:02;0.77;;;0.77;;
24483;SDS011;12643;51.620;7.548;2024-02-26T02:47:31;0.50;;;0.50;;
24483;SDS011;12643;51.620;7.548;2024-02-26T02:50:02;0.60;;;0.50;;
24483;SDS011;12643;51.620;7.548;2024-02-26T02:52:30;0.88;;;0.70;;
24483;SDS011;12643;51.620;7.548;2024-02-26T02:54:58;0.80;;;0.80;;
24483;SDS011;12643;51.620;7.548;2024-02-26T02:57:28;0.47;;;0.47;;
24483;SDS011;12643;51.620;7.548;2024-02-26T02:59:56;0.55;;;0.52;;
24483;SDS011;12643;51.620;7.548;2024-02-26T03:02:24;0.47;;;0.47;;
24483;SDS011;12643;51.620;7.548;2024-02-26T03:04:52;2.13;;;0.50;;
24483;SDS011;12643;51.620;7.548;2024-02-26T03:07:20;0.82;;;0.75;;
24483;SDS011;12643;51.620;7.548;2024-02-26T03:09:48;0.60;;;0.60;;
24483;SDS011;12643;51.620;7.548;2024-02-26T03:12:16;0.73;;;0.60;;
24483;SDS011;12643;51.620;7.548;2024-02-26T03:14:45;0.90;;;0.73;;
24483;SDS011;12643;51.620;7.548;2024-02-26T03:17:13;1.33;;;0.70;;
24483;SDS011;12643;51.620;7.548;2024-02-26T03:19:41;1.17;;;0.73;;
24483;SDS011;12643;51.620;7.548;2024-02-26T03:22:12;0.70;;;0.60;;
24483;SDS011;12643;51.620;7.548;2024-02-26T03:24:40;0.70;;;0.60;;
24483;SDS011;12643;51.620;7.548;2024-02-26T03:27:08;0.60;;;0.60;;
24483;SDS011;12643;51.620;7.548;2024-02-26T03:29:36;0.60;;;0.60;;
24483;SDS011;12643;51.620;7.548;2024-02-26T03:32:06;0.60;;;0.40;;
24483;SDS011;12643;51.620;7.548;2024-02-26T03:34:34;0.52;;;0.43;;
24483;SDS011;12643;51.620;7.548;2024-02-26T03:37:04;0.60;;;0.43;;
24483;SDS011;12643;51.620;7.548;2024-02-26T03:39:33;0.50;;;0.50;;
24483;SDS011;12643;51.620;7.548;2024-02-26T03:42:01;1.50;;;0.47;;
24483;SDS011;12643;51.620;7.548;2024-02-26T03:44:29;0.68;;;0.60;;
24483;SDS011;12643;51.620;7.548;2024-02-26T03:46:57;0.60;;;0.50;;
24483;SDS011;12643;51.620;7.548;2024-02-26T03:49:26;0.50;;;0.50;;
24483;SDS011;12643;51.620;7.548;2024-02-26T03:51:54;0.60;;;0.60;;
24483;SDS011;12643;51.620;7.548;2024-02-26T03:54:22;1.02;;;0.82;;
24483;SDS011;12643;51.620;7.548;2024-02-26T03:56:50;0.50;;;0.50;;
24483;SDS011;12643;51.620;7.548;2024-02-26T03:59:18;0.50;;;0.47;;
24483;SDS011;12643;51.620;7.548;2024-02-26T04:01:48;0.60;;;0.55;;
24483;SDS011;12643;51.620;7.548;2024-02-26T04:04:16;0.50;;;0.50;;
24483;SDS011;12643;51.620;7.548;2024-02-26T04:06:45;0.70;;;0.70;;
24483;SDS011;12643;51.620;7.548;2024-02-26T04:09:13;0.50;;;0.50;;
24483;SDS011;12643;51.620;7.548;2024-02-26T04:11:41;0.73;;;0.60;;
24483;SDS011;12643;51.620;7.548;2024-02-26T04:14:09;0.63;;;0.38;;
24483;SDS011;12643;51.620;7.548;2024-02-26T04:16:38;0.50;;;0.40;;
24483;SDS011;12643;51.620;7.548;2024-02-26T04:19:05;0.85;;;0.57;;
24483;SDS011;12643;51.620;7.548;2024-02-26T04:21:33;0.70;;;0.70;;
24483;SDS011;12643;51.620;7.548;2024-02-26T04:24:03;0.40;;;0.40;;
24483;SDS011;12643;51.620;7.548;2024-02-26T04:26:31;0.32;;;0.32;;
24483;SDS011;12643;51.620;7.548;2024-02-26T04:28:59;0.52;;;0.50;;
24483;SDS011;12643;51.620;7.548;2024-02-26T04:31:27;0.43;;;0.43;;
24483;SDS011;12643;51.620;7.548;2024-02-26T04:33:57;0.50;;;0.50;;
24483;SDS011;12643;51.620;7.548;2024-02-26T04:36:24;0.40;;;0.40;;
24483;SDS011;12643;51.620;7.548;2024-02-26T04:38:52;0.50;;;0.50;;
24483;SDS011;12643;51.620;7.548;2024-02-26T04:41:22;0.50;;;0.50;;
24483;SDS011;12643;51.620;7.548;2024-02-26T04:43:50;0.63;;;0.55;;
24483;SDS011;12643;51.620;7.548;2024-02-26T04:46:18;0.68;;;0.40;;
24483;SDS011;12643;51.620;7.548;2024-02-26T04:48:47;0.95;;;0.40;;
24483;SDS011;12643;51.620;7.548;2024-02-26T04:51:15;0.90;;;0.45;;
24483;SDS011;12643;51.620;7.548;2024-02-26T04:53:43;0.70;;;0.50;;
24483;SDS011;12643;51.620;7.548;2024-02-26T04:56:11;0.50;;;0.50;;
24483;SDS011;12643;51.620;7.548;2024-02-26T04:58:40;0.75;;;0.75;;
24483;SDS011;12643;51.620;7.548;2024-02-26T05:01:08;0.50;;;0.50;;
24483;SDS011;12643;51.620;7.548;2024-02-26T05:03:36;0.35;;;0.35;;
24483;SDS011;12643;51.620;7.548;2024-02-26T05:06:04;0.50;;;0.50;;
24483;SDS011;12643;51.620;7.548;2024-02-26T05:08:32;0.75;;;0.60;;
24483;SDS011;12643;51.620;7.548;2024-02-26T05:11:01;0.30;;;0.30;;
24483;SDS011;12643;51.620;7.548;2024-02-26T05:13:29;0.20;;;0.20;;
24483;SDS011;12643;51.620;7.548;2024-02-26T05:15:59;0.60;;;0.60;;
24483;SDS011;12643;51.620;7.548;2024-02-26T05:18:27;0.70;;;0.47;;
24483;SDS011;12643;51.620;7.548;2024-02-26T05:20:55;0.70;;;0.60;;
24483;SDS011;12643;51.620;7.548;2024-02-26T05:23:23;0.40;;;0.40;;
24483;SDS011;12643;51.620;7.548;2024-02-26T05:25:52;0.50;;;0.50;;
24483;SDS011;12643;51.620;7.548;2024-02-26T05:28:19;0.57;;;0.57;;
24483;SDS011;12643;51.620;7.548;2024-02-26T05:30:47;0.60;;;0.60;;
24483;SDS011;12643;51.620;7.548;2024-02-26T05:33:17;0.40;;;0.40;;
24483;SDS011;12643;51.620;7.548;2024-02-26T05:35:45;0.43;;;0.40;;
24483;SDS011;12643;51.620;7.548;2024-02-26T05:38:12;0.40;;;0.40;;
24483;SDS011;12643;51.620;7.548;2024-02-26T05:40:41;0.40;;;0.40;;
24483;SDS011;12643;51.620;7.548;2024-02-26T05:43:11;0.80;;;0.40;;
24483;SDS011;12643;51.620;7.548;2024-02-26T05:45:41;0.60;;;0.60;;
24483;SDS011;12643;51.620;7.548;2024-02-26T05:48:09;0.30;;;0.30;;
24483;SDS011;12643;51.620;7.548;2024-02-26T05:50:38;0.70;;;0.50;;
24483;SDS011;12643;51.620;7.548;2024-02-26T05:53:06;0.50;;;0.50;;
24483;SDS011;12643;51.620;7.548;2024-02-26T05:55:33;0.45;;;0.40;;
24483;SDS011;12643;51.620;7.548;2024-02-26T05:58:01;0.40;;;0.40;;
24483;SDS011;12643;51.620;7.548;2024-02-26T06:00:29;0.40;;;0.40;;
24483;SDS011;12643;51.620;7.548;2024-02-26T06:02:57;0.50;;;0.50;;
24483;SDS011;12643;51.620;7.548;2024-02-26T06:05:25;0.32;;;0.32;;
24483;SDS011;12643;51.620;7.548;2024-02-26T06:07:54;0.40;;;0.35;;
24483;SDS011;12643;51.620;7.548;2024-02-26T06:10:22;0.68;;;0.43;;
24483;SDS011;12643;51.620;7.548;2024-02-26T06:12:50;0.45;;;0.45;;
24483;SDS011;12643;51.620;7.548;2024-02-26T06:15:18;0.70;;;0.70;;
24483;SDS011;12643;51.620;7.548;2024-02-26T06:17:46;1.65;;;0.50;;
24483;SDS011;12643;51.620;7.548;2024-02-26T06:20:14;0.60;;;0.52;;
24483;SDS011;12643;51.620;7.548;2024-02-26T06:22:42;1.15;;;0.73;;
24483;SDS011;12643;51.620;7.548;2024-02-26T06:25:11;1.95;;;0.65;;
24483;SDS011;12643;51.620;7.548;2024-02-26T06:27:40;2.90;;;0.88;;
24483;SDS011;12643;51.620;7.548;2024-02-26T06:30:09;0.82;;;0.75;;
24483;SDS011;12643;51.620;7.548;2024-02-26T06:32:37;1.83;;;0.68;;
24483;SDS011;12643;51.620;7.548;2024-02-26T06:35:05;2.97;;;0.90;;
24483;SDS011;12643;51.620;7.548;2024-02-26T06:37:35;4.35;;;0.75;;
24483;SDS011;12643;51.620;7.548;2024-02-26T06:40:06;2.15;;;1.02;;
24483;SDS011;12643;51.620;7.548;2024-02-26T06:42:36;2.13;;;0.80;;
24483;SDS011;12643;51.620;7.548;2024-02-26T06:45:05;1.13;;;0.82;;
24483;SDS011;12643;51.620;7.548;2024-02-26T06:47:33;0.93;;;0.68;;
24483;SDS011;12643;51.620;7.548;2024-02-26T06:50:01;3.28;;;0.95;;
24483;SDS011;12643;51.620;7.548;2024-02-26T06:52:29;1.50;;;0.93;;
24483;SDS011;12643;51.620;7.548;2024-02-26T06:54:57;1.05;;;0.80;;
24483;SDS011;12643;51.620;7.548;2024-02-26T06:57:25;1.83;;;1.00;;
24483;SDS011;12643;51.620;7.548;2024-02-26T06:59:55;1.27;;;1.00;;
24483;SDS011;12643;51.620;7.548;2024-02-26T07:02:24;3.10;;;1.02;;
24483;SDS011;12643;51.620;7.548;2024-02-26T07:04:53;1.42;;;1.10;;
24483;SDS011;12643;51.620;7.548;2024-02-26T07:07:21;1.52;;;0.70;;
24483;SDS011;12643;51.620;7.548;2024-02-26T07:09:49;1.00;;;0.80;;
24483;SDS011;12643;51.620;7.548;2024-02-26T07:12:17;1.35;;;0.88;;
24483;SDS011;12643;51.620;7.548;2024-02-26T07:14:47;1.00;;;0.60;;
24483;SDS011;12643;51.620;7.548;2024-02-26T07:17:16;2.65;;;0.90;;
24483;SDS011;12643;51.620;7.548;2024-02-26T07:19:44;2.65;;;0.60;;
24483;SDS011;12643;51.620;7.548;2024-02-26T07:22:12;1.67;;;0.77;;
24483;SDS011;12643;51.620;7.548;2024-02-26T07:24:40;1.75;;;1.00;;
24483;SDS011;12643;51.620;7.548;2024-02-26T07:27:08;1.92;;;0.77;;
24483;SDS011;12643;51.620;7.548;2024-02-26T07:29:36;3.13;;;0.77;;
24483;SDS011;12643;51.620;7.548;2024-02-26T07:32:05;1.02;;;0.65;;
24483;SDS011;12643;51.620;7.548;2024-02-26T07:34:34;0.93;;;0.55;;
24483;SDS011;12643;51.620;7.548;2024-02-26T07:37:04;0.47;;;0.45;;
24483;SDS011;12643;51.620;7.548;2024-02-26T07:39:32;3.42;;;0.80;;
24483;SDS011;12643;51.620;7.548;2024-02-26T07:42:00;1.88;;;0.68;;
24483;SDS011;12643;51.620;7.548;2024-02-26T07:44:28;0.77;;;0.75;;
24483;SDS011;12643;51.620;7.548;2024-02-26T07:46:57;0.50;;;0.50;;
24483;SDS011;12643;51.620;7.548;2024-02-26T07:49:25;1.25;;;0.60;;
24483;SDS011;12643;51.620;7.548;2024-02-26T07:51:54;0.52;;;0.50;;
24483;SDS011;12643;51.620;7.548;2024-02-26T07:54:23;0.73;;;0.50;;
24483;SDS011;12643;51.620;7.548;2024-02-26T07:56:52;0.43;;;0.43;;
24483;SDS011;12643;51.620;7.548;2024-02-26T07:59:20;0.50;;;0.50;;
24483;SDS011;12643;51.620;7.548;2024-02-26T08:01:49;0.47;;;0.47;;
24483;SDS011;12643;51.620;7.548;2024-02-26T08:04:17;0.80;;;0.75;;
24483;SDS011;12643;51.620;7.548;2024-02-26T08:06:45;1.00;;;0.82;;
24483;SDS011;12643;51.620;7.548;2024-02-26T08:09:15;0.95;;;0.50;;
24483;SDS011;12643;51.620;7.548;2024-02-26T08:11:42;0.68;;;0.68;;
24483;SDS011;12643;51.620;7.548;2024-02-26T08:14:10;1.58;;;0.50;;
24483;SDS011;12643;51.620;7.548;2024-02-26T08:16:39;0.50;;;0.50;;
24483;SDS011;12643;51.620;7.548;2024-02-26T08:19:07;1.05;;;0.60;;
24483;SDS011;12643;51.620;7.548;2024-02-26T08:21:35;0.55;;;0.55;;
24483;SDS011;12643;51.620;7.548;2024-02-26T08:24:03;0.50;;;0.50;;
24483;SDS011;12643;51.620;7.548;2024-02-26T08:26:33;0.70;;;0.70;;
24483;SDS011;12643;51.620;7.548;2024-02-26T08:29:01;1.33;;;0.47;;
24483;SDS011;12643;51.620;7.548;2024-02-26T08:31:29;0.60;;;0.60;;
24483;SDS011;12643;51.620;7.548;2024-02-26T08:34:03;0.88;;;0.60;;
24483;SDS011;12643;51.620;7.548;2024-02-26T08:36:33;0.68;;;0.60;;
24483;SDS011;12643;51.620;7.548;2024-02-26T08:39:01;1.65;;;0.80;;
24483;SDS011;12643;51.620;7.548;2024-02-26T08:41:30;0.80;;;0.70;;
24483;SDS011;12643;51.620;7.548;2024-02-26T08:43:59;0.95;;;0.77;;
24483;SDS011;12643;51.620;7.548;2024-02-26T08:46:27;0.82;;;0.57;;
24483;SDS011;12643;51.620;7.548;2024-02-26T08:48:55;1.80;;;0.70;;
24483;SDS011;12643;51.620;7.548;2024-02-26T08:51:23;0.80;;;0.55;;
24483;SDS011;12643;51.620;7.548;2024-02-26T08:53:51;1.55;;;0.52;;
24483;SDS011;12643;51.620;7.548;2024-02-26T08:56:20;0.98;;;0.80;;
24483;SDS011;12643;51.620;7.548;2024-02-26T08:58:48;3.38;;;0.70;;
24483;SDS011;12643;51.620;7.548;2024-02-26T09:01:21;2.58;;;0.90;;
24483;SDS011;12643;51.620;7.548;2024-02-26T09:03:49;0.68;;;0.55;;
24483;SDS011;12643;51.620;7.548;2024-02-26T09:06:17;1.15;;;0.70;;
24483;SDS011;12643;51.620;7.548;2024-02-26T09:08:45;1.92;;;0.70;;
24483;SDS011;12643;51.620;7.548;2024-02-26T09:11:13;0.45;;;0.45;;
24483;SDS011;12643;51.620;7.548;2024-02-26T09:13:41;0.70;;;0.60;;
24483;SDS011;12643;51.620;7.548;2024-02-26T09:16:09;0.60;;;0.50;;
24483;SDS011;12643;51.620;7.548;2024-02-26T09:18:39;0.75;;;0.60;;
24483;SDS011;12643;51.620;7.548;2024-02-26T09:21:07;0.60;;;0.60;;
24483;SDS011;12643;51.620;7.548;2024-02-26T09:23:35;0.95;;;0.60;;
24483;SDS011;12643;51.620;7.548;2024-02-26T09:26:05;1.63;;;0.77;;
24483;SDS011;12643;51.620;7.548;2024-02-26T09:28:33;0.68;;;0.50;;
24483;SDS011;12643;51.620;7.548;2024-02-26T09:31:03;0.85;;;0.70;;
24483;SDS011;12643;51.620;7.548;2024-02-26T09:33:32;0.50;;;0.50;;
24483;SDS011;12643;51.620;7.548;2024-02-26T09:36:01;1.02;;;0.70;;
24483;SDS011;12643;51.620;7.548;2024-02-26T09:38:29;2.65;;;0.73;;
24483;SDS011;12643;51.620;7.548;2024-02-26T09:41:02;0.70;;;0.70;;
24483;SDS011;12643;51.620;7.548;2024-02-26T09:43:33;1.83;;;1.02;;
24483;SDS011;12643;51.620;7.548;2024-02-26T09:46:03;0.75;;;0.60;;
24483;SDS011;12643;51.620;7.548;2024-02-26T09:48:32;0.50;;;0.50;;
24483;SDS011;12643;51.620;7.548;2024-02-26T09:51:02;0.60;;;0.50;;
24483;SDS011;12643;51.620;7.548;2024-02-26T09:53:31;2.63;;;0.70;;
24483;SDS011;12643;51.620;7.548;2024-02-26T09:56:01;0.82;;;0.73;;
24483;SDS011;12643;51.620;7.548;2024-02-26T09:58:30;0.80;;;0.80;;
24483;SDS011;12643;51.620;7.548;2024-02-26T10:00:59;1.38;;;0.63;;
24483;SDS011;12643;51.620;7.548;2024-02-26T10:03:31;0.57;;;0.57;;
24483;SDS011;12643;51.620;7.548;2024-02-26T10:06:07;1.38;;;0.75;;
24483;SDS011;12643;51.620;7.548;2024-02-26T10:08:35;0.82;;;0.50;;
24483;SDS011;12643;51.620;7.548;2024-02-26T10:11:03;1.30;;;0.60;;
24483;SDS011;12643;51.620;7.548;2024-02-26T10:13:34;0.60;;;0.55;;
24483;SDS011;12643;51.620;7.548;2024-02-26T10:16:02;0.70;;;0.60;;
24483;SDS011;12643;51.620;7.548;2024-02-26T10:18:45;1.85;;;0.65;;
24483;SDS011;12643;51.620;7.548;2024-02-26T10:23:44;0.95;;;0.55;;
24483;SDS011;12643;51.620;7.548;2024-02-26T10:26:13;0.80;;;0.80;;
24483;SDS011;12643;51.620;7.548;2024-02-26T10:28:43;1.00;;;0.65;;
24483;SDS011;12643;51.620;7.548;2024-02-26T10:31:13;0.85;;;0.70;;
24483;SDS011;12643;51.620;7.548;2024-02-26T10:33:42;0.50;;;0.50;;
24483;SDS011;12643;51.620;7.548;2024-02-26T10:36:10;0.50;;;0.50;;
24483;SDS011;12643;51.620;7.548;2024-02-26T10:38:40;0.50;;;0.50;;
24483;SDS011;12643;51.620;7.548;2024-02-26T10:41:13;0.70;;;0.65;;
24483;SDS011;12643;51.620;7.548;2024-02-26T10:43:41;0.55;;;0.55;;
24483;SDS011;12643;51.620;7.548;2024-02-26T10:46:10;0.52;;;0.52;;
24483;SDS011;12643;51.620;7.548;2024-02-26T10:48:38;0.70;;;0.70;;
24483;SDS011;12643;51.620;7.548;2024-02-26T10:51:06;1.67;;;0.63;;
24483;SDS011;12643;51.620;7.548;2024-02-26T10:53:35;0.43;;;0.43;;
24483;SDS011;12643;51.620;7.548;2024-02-26T10:56:06;0.50;;;0.43;;
24483;SDS011;12643;51.620;7.548;2024-02-26T10:58:35;0.85;;;0.70;;
24483;SDS011;12643;51.620;7.548;2024-02-26T11:01:04;0.90;;;0.75;;
24483;SDS011;12643;51.620;7.548;2024-02-26T11:03:32;0.47;;;0.45;;
24483;SDS011;12643;51.620;7.548;2024-02-26T11:06:02;1.17;;;0.68;;
24483;SDS011;12643;51.620;7.548;2024-02-26T11:08:31;2.08;;;0.57;;
24483;SDS011;12643;51.620;7.548;2024-02-26T11:11:00;0.52;;;0.52;;
24483;SDS011;12643;51.620;7.548;2024-02-26T11:13:29;0.70;;;0.70;;
24483;SDS011;12643;51.620;7.548;2024-02-26T11:15:59;0.68;;;0.55;;
24483;SDS011;12643;51.620;7.548;2024-02-26T11:18:28;0.70;;;0.70;;
24483;SDS011;12643;51.620;7.548;2024-02-26T11:20:57;0.50;;;0.50;;
24483;SDS011;12643;51.620;7.548;2024-02-26T11:23:26;1.40;;;0.70;;
24483;SDS011;12643;51.620;7.548;2024-02-26T11:25:54;0.38;;;0.38;;
24483;SDS011;12643;51.620;7.548;2024-02-26T11:28:25;0.70;;;0.60;;
24483;SDS011;12643;51.620;7.548;2024-02-26T11:30:55;0.40;;;0.40;;
24483;SDS011;12643;51.620;7.548;2024-02-26T11:33:26;0.75;;;0.40;;
24483;SDS011;12643;51.620;7.548;2024-02-26T11:35:54;0.40;;;0.40;;
24483;SDS011;12643;51.620;7.548;2024-02-26T11:38:24;0.45;;;0.45;;
24483;SDS011;12643;51.620;7.548;2024-02-26T11:40:54;0.45;;;0.40;;
24483;SDS011;12643;51.620;7.548;2024-02-26T11:43:23;0.45;;;0.45;;
24483;SDS011;12643;51.620;7.548;2024-02-26T11:46:25;0.85;;;0.50;;
24483;SDS011;12643;51.620;7.548;2024-02-26T11:48:58;0.85;;;0.60;;
24483;SDS011;12643;51.620;7.548;2024-02-26T11:51:27;0.95;;;0.60;;
24483;SDS011;12643;51.620;7.548;2024-02-26T11:54:00;0.65;;;0.40;;
24483;SDS011;12643;51.620;7.548;2024-02-26T11:56:28;0.93;;;0.60;;
24483;SDS011;12643;51.620;7.548;2024-02-26T11:58:58;1.02;;;0.50;;
24483;SDS011;12643;51.620;7.548;2024-02-26T12:01:40;0.45;;;0.45;;
24483;SDS011;12643;51.620;7.548;2024-02-26T12:04:14;1.63;;;0.50;;
24483;SDS011;12643;51.620;7.548;2024-02-26T12:06:46;0.52;;;0.52;;
24483;SDS011;12643;51.620;7.548;2024-02-26T12:09:30;0.47;;;0.30;;
24483;SDS011;12643;51.620;7.548;2024-02-26T12:12:03;0.70;;;0.50;;
24483;SDS011;12643;51.620;7.548;2024-02-26T12:14:35;0.55;;;0.50;;
24483;SDS011;12643;51.620;7.548;2024-02-26T12:17:06;0.50;;;0.50;;
24483;SDS011;12643;51.620;7.548;2024-02-26T12:19:42;0.63;;;0.50;;
24483;SDS011;12643;51.620;7.548;2024-02-26T12:22:11;1.63;;;0.70;;
24483;SDS011;12643;51.620;7.548;2024-02-26T12:24:41;1.38;;;0.70;;
24483;SDS011;12643;51.620;7.548;2024-02-26T12:27:09;0.90;;;0.80;;
24483;SDS011;12643;51.620;7.548;2024-02-26T12:29:37;0.70;;;0.70;;
24483;SDS011;12643;51.620;7.548;2024-02-26T12:32:07;0.75;;;0.60;;
24483;SDS011;12643;51.620;7.548;2024-02-26T12:34:36;0.80;;;0.80;;
24483;SDS011;12643;51.620;7.548;2024-02-26T12:37:05;0.77;;;0.65;;
24483;SDS011;12643;51.620;7.548;2024-02-26T12:39:35;1.85;;;0.80;;
24483;SDS011;12643;51.620;7.548;2024-02-26T12:42:04;0.85;;;0.82;;
24483;SDS011;12643;51.620;7.548;2024-02-26T12:44:32;0.68;;;0.63;;
24483;SDS011;12643;51.620;7.548;2024-02-26T12:47:00;0.65;;;0.65;;
24483;SDS011;12643;51.620;7.548;2024-02-26T12:49:31;0.60;;;0.60;;
24483;SDS011;12643;51.620;7.548;2024-02-26T12:51:59;0.77;;;0.70;;
24483;SDS011;12643;51.620;7.548;2024-02-26T12:54:28;1.27;;;0.63;;
24483;SDS011;12643;51.620;7.548;2024-02-26T12:56:57;0.98;;;0.68;;
24483;SDS011;12643;51.620;7.548;2024-02-26T12:59:26;1.23;;;0.80;;
24483;SDS011;12643;51.620;7.548;2024-02-26T13:01:54;1.17;;;0.90;;
24483;SDS011;12643;51.620;7.548;2024-02-26T13:04:23;0.80;;;0.80;;
24483;SDS011;12643;51.620;7.548;2024-02-26T13:06:53;1.00;;;0.90;;
24483;SDS011;12643;51.620;7.548;2024-02-26T13:09:26;1.00;;;0.80;;
24483;SDS011;12643;51.620;7.548;2024-02-26T13:11:54;1.17;;;0.75;;
24483;SDS011;12643;51.620;7.548;2024-02-26T13:14:22;0.90;;;0.82;;
24483;SDS011;12643;51.620;7.548;2024-02-26T13:16:56;1.25;;;0.70;;
24483;SDS011;12643;51.620;7.548;2024-02-26T13:19:26;1.00;;;0.90;;
24483;SDS011;12643;51.620;7.548;2024-02-26T13:21:55;0.90;;;0.90;;
24483;SDS011;12643;51.620;7.548;2024-02-26T13:24:30;0.93;;;0.85;;
24483;SDS011;12643;51.620;7.548;2024-02-26T13:26:57;1.10;;;1.00;;
24483;SDS011;12643;51.620;7.548;2024-02-26T13:29:26;1.08;;;0.90;;
24483;SDS011;12643;51.620;7.548;2024-02-26T13:31:54;1.17;;;1.08;;
24483;SDS011;12643;51.620;7.548;2024-02-26T13:34:24;1.00;;;1.00;;
24483;SDS011;12643;51.620;7.548;2024-02-26T13:36:52;0.77;;;0.77;;
24483;SDS011;12643;51.620;7.548;2024-02-26T13:39:25;1.13;;;1.02;;
24483;SDS011;12643;51.620;7.548;2024-02-26T13:41:54;1.00;;;1.00;;
24483;SDS011;12643;51.620;7.548;2024-02-26T13:44:22;2.40;;;1.20;;
24483;SDS011;12643;51.620;7.548;2024-02-26T13:46:51;1.05;;;0.90;;
24483;SDS011;12643;51.620;7.548;2024-02-26T13:49:19;1.08;;;1.00;;
24483;SDS011;12643;51.620;7.548;2024-02-26T13:51:47;0.90;;;0.90;;
24483;SDS011;12643;51.620;7.548;2024-02-26T13:54:15;0.80;;;0.80;;
24483;SDS011;12643;51.620;7.548;2024-02-26T13:56:44;0.93;;;0.93;;
24483;SDS011;12643;51.620;7.548;2024-02-26T13:59:12;1.38;;;1.27;;
24483;SDS011;12643;51.620;7.548;2024-02-26T14:01:40;1.00;;;0.95;;
24483;SDS011;12643;51.620;7.548;2024-02-26T14:04:08;1.00;;;0.90;;
24483;SDS011;12643;51.620;7.548;2024-02-26T14:06:36;0.98;;;0.90;;
24483;SDS011;12643;51.620;7.548;2024-02-26T14:09:05;1.25;;;1.13;;
24483;SDS011;12643;51.620;7.548;2024-02-26T14:11:33;1.08;;;1.00;;
24483;SDS011;12643;51.620;7.548;2024-02-26T14:14:03;0.98;;;0.90;;
24483;SDS011;12643;51.620;7.548;2024-02-26T14:16:31;1.50;;;1.00;;
24483;SDS011;12643;51.620;7.548;2024-02-26T14:18:59;0.88;;;0.88;;
24483;SDS011;12643;51.620;7.548;2024-02-26T14:21:27;1.00;;;1.00;;
24483;SDS011;12643;51.620;7.548;2024-02-26T14:23:56;1.10;;;0.90;;
24483;SDS011;12643;51.620;7.548;2024-02-26T14:26:24;1.08;;;0.93;;
24483;SDS011;12643;51.620;7.548;2024-02-26T14:28:52;0.88;;;0.88;;
24483;SDS011;12643;51.620;7.548;2024-02-26T14:31:22;1.10;;;1.08;;
24483;SDS011;12643;51.620;7.548;2024-02-26T14:33:51;0.98;;;0.98;;
24483;SDS011;12643;51.620;7.548;2024-02-26T14:36:19;1.27;;;1.17;;
24483;SDS011;12643;51.620;7.548;2024-02-26T14:38:47;1.95;;;1.05;;
24483;SDS011;12643;51.620;7.548;2024-02-26T14:41:15;1.20;;;1.10;;
24483;SDS011;12643;51.620;7.548;2024-02-26T14:43:43;1.27;;;0.82;;
24483;SDS011;12643;51.620;7.548;2024-02-26T14:46:11;1.00;;;0.90;;
24483;SDS011;12643;51.620;7.548;2024-02-26T14:48:40;0.93;;;0.77;;
24483;SDS011;12643;51.620;7.548;2024-02-26T14:51:08;4.60;;;1.30;;
24483;SDS011;12643;51.620;7.548;2024-02-26T14:53:36;1.40;;;1.30;;
24483;SDS011;12643;51.620;7.548;2024-02-26T14:56:04;1.25;;;1.15;;
24483;SDS011;12643;51.620;7.548;2024-02-26T14:58:35;1.17;;;1.07;;
24483;SDS011;12643;51.620;7.548;2024-02-26T15:01:05;1.10;;;1.00;;